Meteo Giornale » Osservazioni meteo Stati Uniti (USA) » Atqasuk Burnell
ore: 20:56 - Osservazioni Meteo Atqasuk Burnell
Lat. 70° 28' N Lon. 157° 26' W Alt. 29 metri s.l.m.
4 °C
Coperto
Temp. 24 Ore
3 °C
7 °C
Sud-Ovest
24 Km/h
Dew point 4 °C
Umidità 100 %
Visibilità 10 Km
Il sole sorge alle ore 06:40
Il sole tramonta alle ore 22:19
| Data e Ora | Cielo e Fenomeni | T °C | DP °C | Um. % | Pres. hPa | Vis. km | Vento km/h | |
|---|---|---|---|---|---|---|---|---|
| Oggi h: 20:56 | Coperto | 4 | 4 | 100 | 1004 | 10 | SO 24 | |
| Oggi h: 20:32 | Pioggia | 4 | 4 | 100 | 1004 | 10 | O/SO 25.9 | |
| Oggi h: 20:19 | Pioggia Foschia | 5 | 4 | 93 | 1004 | 2 | SO 35.2 | |
| Oggi h: 19:56 | Coperto | 6 | 4 | 86 | 1004 | 10 | SO 37 | |
| Oggi h: 19:45 | Pioggia | 6 | 5 | 93 | 1004 | 13 | SO 33.3 | |
| Oggi h: 19:30 | Pioggia Foschia | 6 | 5 | 93 | 1004 | 6 | SO 29.6 | |
| Oggi h: 18:56 | Pioggia | 6 | 4 | 86 | 1005 | 10 | S/SO 29.6 | |
| Oggi h: 18:47 | Pioggia | 6 | 4 | 86 | 1005 | 10 | S/SO 29.6 | |
| Oggi h: 17:56 | Pioggia | 6 | 4 | 86 | 1005 | 10 | SO 35.2 | |
| Oggi h: 17:44 | Pioggia | 6 | 5 | 93 | 1005 | 10 | SO 31.5 | |
| Oggi h: 17:06 | Pioggia | 6 | 5 | 93 | 1005 | 10 | SO 25.9 | |
| Oggi h: 16:56 | Pioggia | 6 | 5 | 93 | 1005 | 10 | SO 27.8 | |
| Oggi h: 16:17 | Pioggia | 6 | 5 | 93 | 1006 | 10 | SO 25.9 | |
| Oggi h: 15:56 | Pioggia | 7 | 5 | 87 | 1006 | 10 | SO 22.2 | |
| Oggi h: 14:56 | Coperto | 7 | 4 | 81 | 1006 | 10 | O/SO 29.6 | |
| Oggi h: 14:53 | Coperto | 7 | 4 | 81 | 1006 | 10 | O/SO 31.5 | |
| Oggi h: 14:11 | Coperto | 7 | 6 | 93 | 1006 | 10 | O/SO 24 | |
| Oggi h: 13:56 | Coperto | 7 | 6 | 93 | 1006 | 10 | O/SO 24 | |
| Oggi h: 13:43 | Coperto | 7 | 6 | 93 | 1006 | 10 | O/SO 27.8 | |
| Oggi h: 12:56 | Coperto | 6 | 6 | 100 | 1006 | 10 | O/SO 22.2 | |
| Oggi h: 12:04 | Coperto | 6 | 5 | 93 | 1006 | 10 | O 22.2 | |
| Oggi h: 11:56 | Coperto | 6 | 5 | 93 | 1006 | 10 | O 20.3 | |
| Oggi h: 11:21 | Coperto | 6 | 5 | 93 | 1006 | 10 | O 20.3 | |
| Oggi h: 10:56 | Pioggia | 5 | 5 | 100 | 1006 | 10 | O 22.2 | |
| Oggi h: 10:41 | Coperto | 5 | 5 | 100 | 1006 | 10 | O 24 | |
| Oggi h: 10:33 | Coperto | 5 | 5 | 100 | 1006 | 10 | O 24 | |
| Oggi h: 10:12 | Pioggia Foschia | 5 | 5 | 100 | 1006 | 5 | O/NO 25.9 | |
| Oggi h: 10:05 | Pioggia Foschia | 5 | 5 | 100 | 1005 | 5 | O 22.2 | |
| Oggi h: 09:56 | Pioggia Foschia | 4 | 4 | 100 | 1005 | 2 | O/SO 22.2 | |
| Oggi h: 09:37 | Pioggia Nebbia | 4 | 4 | 100 | 1005 | 2 | O/SO 16.7 | |
| Oggi h: 09:32 | Pioggia Foschia | 4 | 4 | 100 | 1005 | 2 | SO 20.3 | |
| Oggi h: 09:24 | Pioggia Foschia | 4 | 4 | 100 | 1005 | 3 | SO 20.3 | |
| Oggi h: 09:13 | Pioggia Foschia | 4 | 4 | 100 | 1005 | 2 | SO 20.3 | |
| Oggi h: 09:02 | Pioggia Foschia | 4 | 4 | 100 | 1005 | 5 | SO 20.3 | |
| Oggi h: 08:54 | Pioggia Foschia | 3 | 3 | 100 | 1005 | 5 | SO 22.2 | |
| Oggi h: 08:53 | Pioggia Foschia | 3 | 3 | 100 | 1005 | 5 | SO 22.2 | |
| Oggi h: 08:47 | Pioggia Foschia | 3 | 3 | 100 | 1005 | 5 | SO 22.2 | |
| Oggi h: 08:18 | Pioggia Foschia | 3 | 3 | 100 | 1005 | 2 | SO 25.9 | |
| Oggi h: 08:08 | Pioggia Foschia | 3 | 3 | 100 | 1005 | 2 | SO 24 | |
| Oggi h: 08:00 | Foschia | 3 | 3 | 100 | 1005 | 3 | SO 25.9 | |
| Oggi h: 07:51 | Foschia | 3 | 3 | 100 | 1005 | 5 | SO 22.2 | |
| Oggi h: 07:31 | Coperto | 3 | 3 | 100 | 1005 | 10 | SO 24 | |
| Oggi h: 06:56 | Coperto | 3 | 3 | 100 | 1005 | 10 | SO 27.8 | |
| Oggi h: 06:05 | Coperto | 4 | 3 | 93 | 1005 | 10 | SO 25.9 | |
| Oggi h: 05:56 | Coperto | 4 | 3 | 93 | 1005 | 10 | SO 27.8 | |
| Oggi h: 05:44 | Coperto | 4 | 3 | 93 | 1005 | 10 | SO 25.9 | |
| Oggi h: 05:08 | Coperto | 4 | 3 | 93 | 1005 | 10 | SO 25.9 | |
| Oggi h: 04:56 | Coperto | 4 | 3 | 93 | 1005 | 10 | SO 24 | |
| Oggi h: 03:56 | Coperto | 4 | 3 | 93 | 1005 | 10 | SO 25.9 | |
| Oggi h: 03:38 | Coperto | 4 | 3 | 93 | 1005 | 10 | SO 24 | |
| Oggi h: 02:56 | Coperto | 4 | 3 | 93 | 1005 | 10 | SO 24 | |
| Oggi h: 01:56 | Coperto | 5 | 4 | 93 | 1005 | 10 | SO 20.3 | |
| Oggi h: 00:56 | Coperto | 5 | 4 | 93 | 1005 | 10 | O/SO 20.3 | |
| Ieri h: 23:56 | Coperto | 5 | 4 | 93 | 1004 | 10 | O/SO 22.2 | |
| Ieri h: 22:56 | Coperto | 5 | 4 | 93 | 1004 | 10 | O/SO 25.9 | |
| Ieri h: 21:56 | Coperto | 6 | 4 | 86 | 1004 | 10 | O/SO 27.8 | |



